Terminal Aerodrome Forecast
Issued by NWS Sterling, VA

Current Version | Previous Version | Graphics & Text | Print | Product List | Glossary On
Versions: 1 2 3 4 5 6 7 8 9 10 11 12 13 14 15 16 17 18 19 20 21 22 23 24 25 26 27 28 29 30
089
FTUS41 KLWX 162054 AAA
TAFIAD
TAF AMD
KIAD 162054Z 1621/1724 17005KT P6SM OVC020
     FM170200 16004KT P6SM OVC015
     FM170600 16004KT 3SM BR OVC008
     FM170900 VRB03KT 1 1/2SM BR OVC003
     FM171200 VRB03KT 1SM -RA BR OVC008
     FM171800 17007KT 1 1/2SM BR OVC010
     FM172100 18008KT 4SM BR OVC010=

USA.gov is the U.S. government's official web portal to all federal, state and local government web resources and services.